Time,TemperatureF,DewpointF,PressureIn,WindDirection,WindDirectionDegrees,WindSpeedMPH,WindSpeedGustMPH,Humidity,HourlyPrecipIn,Conditions,Clouds,dailyrainin,SoftwareType,DateUTC
2013-11-19 00:01:00,39.0,26.7,30.06,NNE,22,0.0,0.0,61,0.00,CLR,,0.00,WeatherDisplay:10.37,2013-11-19 05:01:00,
2013-11-19 00:03:00,39.0,26.7,30.06,NNE,22,0.0,0.0,61,0.00,CLR,,0.00,WeatherDisplay:10.37,2013-11-19 05:03:00,
2013-11-19 00:08:00,39.0,26.7,30.06,NNE,22,0.0,0.0,61,0.00,CLR,,0.00,WeatherDisplay:10.37,2013-11-19 05:08:00,
2013-11-19 00:13:00,39.0,27.1,30.06,NNE,22,0.0,0.0,62,0.00,CLR,,0.00,WeatherDisplay:10.37,2013-11-19 05:13:00,
2013-11-19 00:18:00,37.9,26.1,30.07,NNE,22,0.0,0.0,62,0.00,CLR,,0.00,WeatherDisplay:10.37,2013-11-19 05:18:00,
2013-11-19 00:23:00,37.9,26.1,30.07,NNE,22,0.0,0.0,62,0.00,CLR,,0.00,WeatherDisplay:10.37,2013-11-19 05:23:00,
2013-11-19 00:28:00,37.6,25.7,30.07,NNE,22,0.0,0.0,62,0.00,CLR,,0.00,WeatherDisplay:10.37,2013-11-19 05:28:00,
2013-11-19 00:33:00,37.6,25.7,30.07,NNE,22,0.0,0.0,62,0.00,CLR,,0.00,WeatherDisplay:10.37,2013-11-19 05:33:00,
2013-11-19 00:38:00,37.6,26.1,30.07,NNE,22,0.0,0.0,63,0.00,CLR,,0.00,WeatherDisplay:10.37,2013-11-19 05:38:00,
2013-11-19 00:43:00,37.4,25.9,30.07,NNE,22,0.0,0.0,63,0.00,CLR,,0.00,WeatherDisplay:10.37,2013-11-19 05:43:00,
2013-11-19 00:48:00,37.2,25.8,30.07,NNE,22,0.0,0.0,63,0.00,CLR,,0.00,WeatherDisplay:10.37,2013-11-19 05:48:00,
2013-11-19 00:53:00,37.2,25.8,30.06,NNE,22,0.0,0.0,63,0.00,CLR,,0.00,WeatherDisplay:10.37,2013-11-19 05:53:00,
2013-11-19 00:58:00,37.2,25.8,30.06,NNE,22,0.0,0.0,63,0.00,CLR,,0.00,WeatherDisplay:10.37,2013-11-19 05:58:00,
2013-11-19 01:03:00,37.2,26.2,30.06,NNE,22,0.0,0.0,64,0.00,CLR,,0.00,WeatherDisplay:10.37,2013-11-19 06:03:00,
2013-11-19 01:08:00,37.2,26.2,30.06,NNE,22,0.0,0.0,64,0.00,CLR,,0.00,WeatherDisplay:10.37,2013-11-19 06:08:00,
2013-11-19 01:13:00,36.7,25.6,30.06,NNE,22,0.0,0.0,64,0.00,CLR,,0.00,WeatherDisplay:10.37,2013-11-19 06:13:00,
2013-11-19 01:18:00,36.7,25.6,30.06,NNE,22,0.0,0.0,64,0.00,CLR,,0.00,WeatherDisplay:10.37,2013-11-19 06:18:00,
2013-11-19 01:23:00,36.5,25.5,30.06,NNE,22,0.0,0.0,64,0.00,CLR,,0.00,WeatherDisplay:10.37,2013-11-19 06:23:00,
2013-11-19 01:28:00,36.3,25.3,30.06,NNE,22,0.0,0.0,64,0.00,CLR,,0.00,WeatherDisplay:10.37,2013-11-19 06:28:00,
2013-11-19 01:33:00,36.3,25.3,30.06,NNE,22,0.0,0.0,64,0.00,CLR,,0.00,WeatherDisplay:10.37,2013-11-19 06:33:00,
2013-11-19 01:38:00,36.3,24.9,30.06,NNE,22,0.0,0.0,63,0.00,CLR,,0.00,WeatherDisplay:10.37,2013-11-19 06:38:00,
2013-11-19 01:43:00,36.1,24.7,30.06,NNE,22,0.0,0.0,63,0.00,CLR,,0.00,WeatherDisplay:10.37,2013-11-19 06:43:00,
2013-11-19 01:48:00,36.0,24.6,30.06,NNE,22,0.0,0.0,63,0.00,CLR,,0.00,WeatherDisplay:10.37,2013-11-19 06:48:00,
2013-11-19 01:53:00,35.8,24.4,30.06,NNE,22,0.0,0.0,63,0.00,CLR,,0.00,WeatherDisplay:10.37,2013-11-19 06:53:00,
2013-11-19 01:58:00,35.8,24.4,30.06,NNE,22,0.0,0.0,63,0.00,CLR,,0.00,WeatherDisplay:10.37,2013-11-19 06:58:00,
2013-11-19 02:03:00,35.8,24.8,30.06,NNE,22,0.0,0.0,64,0.00,CLR,,0.00,WeatherDisplay:10.37,2013-11-19 07:03:00,
2013-11-19 02:08:00,35.8,24.8,30.06,NNE,22,0.0,0.0,64,0.00,CLR,,0.00,WeatherDisplay:10.37,2013-11-19 07:08:00,
2013-11-19 02:13:00,35.4,24.4,30.06,NNE,22,0.0,0.0,64,0.00,CLR,,0.00,WeatherDisplay:10.37,2013-11-19 07:13:00,
2013-11-19 02:18:00,35.4,24.4,30.06,NNE,22,0.0,0.0,64,0.00,CLR,,0.00,WeatherDisplay:10.37,2013-11-19 07:18:00,
2013-11-19 02:23:00,35.2,24.6,30.06,NNE,22,0.0,0.0,65,0.00,CLR,,0.00,WeatherDisplay:10.37,2013-11-19 07:23:00,
2013-11-19 02:28:00,35.2,24.6,30.06,NNE,22,0.0,0.0,65,0.00,CLR,,0.00,WeatherDisplay:10.37,2013-11-19 07:28:00,
2013-11-19 02:33:00,35.1,24.5,30.06,NNE,22,0.0,0.0,65,0.00,CLR,,0.00,WeatherDisplay:10.37,2013-11-19 07:33:00,
2013-11-19 02:38:00,34.7,24.5,30.07,NNE,22,0.0,0.0,66,0.00,CLR,,0.00,WeatherDisplay:10.37,2013-11-19 07:38:00,
2013-11-19 02:43:00,34.5,24.3,30.07,NNE,22,0.0,0.0,66,0.00,CLR,,0.00,WeatherDisplay:10.37,2013-11-19 07:43:00,
2013-11-19 02:48:00,34.5,24.7,30.07,NNE,22,0.0,0.0,67,0.00,CLR,,0.00,WeatherDisplay:10.37,2013-11-19 07:48:00,
2013-11-19 02:53:00,34.3,24.5,30.07,NNE,22,0.0,0.0,67,0.00,CLR,,0.00,WeatherDisplay:10.37,2013-11-19 07:53:00,
2013-11-19 02:58:00,34.3,24.5,30.07,NNE,22,0.0,0.0,67,0.00,CLR,,0.00,WeatherDisplay:10.37,2013-11-19 07:58:00,
2013-11-19 03:03:00,34.3,24.9,30.07,NNE,22,0.0,0.0,68,0.00,CLR,,0.00,WeatherDisplay:10.37,2013-11-19 08:03:00,
2013-11-19 03:08:00,34.3,24.9,30.08,NNE,22,0.0,0.0,68,0.00,CLR,,0.00,WeatherDisplay:10.37,2013-11-19 08:08:00,
2013-11-19 03:13:00,34.5,25.0,30.08,NNE,22,0.0,0.0,68,0.00,CLR,,0.00,WeatherDisplay:10.37,2013-11-19 08:13:00,
2013-11-19 03:18:00,34.7,25.2,30.08,NNE,22,0.0,0.0,68,0.00,CLR,,0.00,WeatherDisplay:10.37,2013-11-19 08:18:00,
2013-11-19 03:23:00,34.7,25.6,30.08,NNE,22,0.0,0.0,69,0.00,CLR,,0.00,WeatherDisplay:10.37,2013-11-19 08:23:00,
2013-11-19 03:28:00,34.7,25.6,30.08,NNE,22,0.0,0.0,69,0.00,CLR,,0.00,WeatherDisplay:10.37,2013-11-19 08:28:00,
2013-11-19 03:33:00,34.7,25.6,30.08,NNE,22,0.0,0.0,69,0.00,CLR,,0.00,WeatherDisplay:10.37,2013-11-19 08:33:00,
2013-11-19 03:38:00,34.5,25.4,30.08,NNE,22,0.0,0.0,69,0.00,CLR,,0.00,WeatherDisplay:10.37,2013-11-19 08:38:00,
2013-11-19 03:43:00,34.5,25.4,30.08,NNE,22,0.0,0.0,69,0.00,CLR,,0.00,WeatherDisplay:10.37,2013-11-19 08:43:00,
2013-11-19 03:48:00,34.5,25.4,30.08,NNE,22,0.0,0.0,69,0.00,CLR,,0.00,WeatherDisplay:10.37,2013-11-19 08:48:00,
2013-11-19 03:53:00,34.3,25.2,30.08,NNE,22,0.0,0.0,69,0.00,CLR,,0.00,WeatherDisplay:10.37,2013-11-19 08:53:00,
2013-11-19 03:58:00,34.5,25.4,30.08,NNE,22,0.0,0.0,69,0.00,CLR,,0.00,WeatherDisplay:10.37,2013-11-19 08:58:00,
2013-11-19 04:03:00,34.3,25.2,30.08,NNE,22,0.0,0.0,69,0.00,CLR,,0.00,WeatherDisplay:10.37,2013-11-19 09:03:00,
2013-11-19 04:08:00,34.5,25.4,30.08,NNE,22,0.0,0.0,69,0.00,CLR,,0.00,WeatherDisplay:10.37,2013-11-19 09:08:00,
2013-11-19 04:13:00,34.5,25.4,30.08,NNE,22,0.0,0.0,69,0.00,CLR,,0.00,WeatherDisplay:10.37,2013-11-19 09:13:00,
2013-11-19 04:18:00,34.5,25.4,30.08,NNE,22,0.0,0.0,69,0.00,CLR,,0.00,WeatherDisplay:10.37,2013-11-19 09:18:00,
2013-11-19 04:23:00,34.5,25.4,30.08,NNE,22,0.0,0.0,69,0.00,CLR,,0.00,WeatherDisplay:10.37,2013-11-19 09:23:00,
2013-11-19 04:28:00,34.3,25.2,30.08,NNE,22,0.0,0.0,69,0.00,CLR,,0.00,WeatherDisplay:10.37,2013-11-19 09:28:00,
2013-11-19 04:34:00,34.3,25.6,30.08,NNE,22,0.0,0.0,70,0.00,CLR,,0.00,WeatherDisplay:10.37,2013-11-19 09:34:00,
2013-11-19 04:39:00,34.3,25.6,30.08,NNE,22,0.0,0.0,70,0.00,CLR,,0.00,WeatherDisplay:10.37,2013-11-19 09:39:00,
2013-11-19 04:44:00,34.3,25.2,30.09,NNE,22,0.0,0.0,69,0.00,CLR,,0.00,WeatherDisplay:10.37,2013-11-19 09:44:00,
2013-11-19 04:49:00,34.3,25.6,30.09,NNE,22,0.0,0.0,70,0.00,CLR,,0.00,WeatherDisplay:10.37,2013-11-19 09:49:00,
2013-11-19 04:54:00,34.3,25.2,30.09,NNE,22,0.0,0.0,69,0.00,CLR,,0.00,WeatherDisplay:10.37,2013-11-19 09:54:00,
2013-11-19 04:59:00,34.3,25.2,30.09,NNE,22,0.0,0.0,69,0.00,CLR,,0.00,WeatherDisplay:10.37,2013-11-19 09:59:00,
2013-11-19 05:04:00,34.2,25.0,30.09,NNE,22,0.0,0.0,69,0.00,CLR,,0.00,WeatherDisplay:10.37,2013-11-19 10:04:00,
2013-11-19 05:09:00,34.0,24.9,30.10,NNE,22,0.0,0.0,69,0.00,CLR,,0.00,WeatherDisplay:10.37,2013-11-19 10:09:00,
2013-11-19 05:14:00,33.8,24.7,30.11,NNE,22,0.0,0.0,69,0.00,CLR,,0.00,WeatherDisplay:10.37,2013-11-19 10:14:00,
2013-11-19 05:19:00,33.6,24.5,30.11,NNE,22,0.0,0.0,69,0.00,CLR,,0.00,WeatherDisplay:10.37,2013-11-19 10:19:00,
2013-11-19 05:24:00,33.6,24.5,30.10,NNE,22,0.0,0.0,69,0.00,CLR,,0.00,WeatherDisplay:10.37,2013-11-19 10:24:00,
2013-11-19 05:29:00,33.6,24.5,30.11,NNE,22,0.0,0.0,69,0.00,CLR,,0.00,WeatherDisplay:10.37,2013-11-19 10:29:00,
2013-11-19 05:34:00,33.6,24.5,30.11,NNE,22,0.0,0.0,69,0.00,CLR,,0.00,WeatherDisplay:10.37,2013-11-19 10:34:00,
2013-11-19 05:39:00,33.4,24.4,30.11,NNE,22,0.0,0.0,69,0.00,CLR,,0.00,WeatherDisplay:10.37,2013-11-19 10:39:00,
2013-11-19 05:44:00,33.4,24.4,30.11,NNE,22,0.0,0.0,69,0.00,CLR,,0.00,WeatherDisplay:10.37,2013-11-19 10:44:00,
2013-11-19 05:49:00,33.3,24.2,30.11,NNE,22,0.0,0.0,69,0.00,CLR,,0.00,WeatherDisplay:10.37,2013-11-19 10:49:00,
2013-11-19 05:54:00,33.3,24.5,30.11,NNE,22,0.0,0.0,70,0.00,CLR,,0.00,WeatherDisplay:10.37,2013-11-19 10:54:00,
2013-11-19 05:59:00,33.3,24.5,30.12,NNE,22,0.0,0.0,70,0.00,CLR,,0.00,WeatherDisplay:10.37,2013-11-19 10:59:00,
2013-11-19 06:04:00,33.1,24.4,30.12,NNE,22,0.0,0.0,70,0.00,CLR,,0.00,WeatherDisplay:10.37,2013-11-19 11:04:00,
2013-11-19 06:09:00,33.1,24.4,30.12,NNE,22,0.0,0.0,70,0.00,CLR,,0.00,WeatherDisplay:10.37,2013-11-19 11:09:00,
2013-11-19 06:14:00,33.1,24.4,30.12,NNE,22,0.0,0.0,70,0.00,CLR,,0.00,WeatherDisplay:10.37,2013-11-19 11:14:00,
2013-11-19 06:19:00,32.9,24.2,30.12,NNE,22,0.0,0.0,70,0.00,CLR,,0.00,WeatherDisplay:10.37,2013-11-19 11:19:00,
2013-11-19 06:24:00,32.9,24.2,30.12,NNE,22,0.0,0.0,70,0.00,CLR,,0.00,WeatherDisplay:10.37,2013-11-19 11:24:00,
2013-11-19 06:29:00,32.7,24.0,30.12,NNE,22,0.0,0.0,70,0.00,CLR,,0.00,WeatherDisplay:10.37,2013-11-19 11:29:00,
2013-11-19 06:34:00,32.7,24.0,30.13,NNE,22,0.0,0.0,70,0.00,CLR,,0.00,WeatherDisplay:10.37,2013-11-19 11:34:00,
2013-11-19 06:39:00,32.5,23.8,30.13,NNE,22,0.0,0.0,70,0.00,CLR,,0.00,WeatherDisplay:10.37,2013-11-19 11:39:00,
2013-11-19 06:44:00,32.4,23.7,30.13,NNE,22,0.0,0.0,70,0.00,CLR,,0.00,WeatherDisplay:10.37,2013-11-19 11:44:00,
2013-11-19 06:49:00,32.2,23.5,30.13,NNE,22,0.0,0.0,70,0.00,CLR,,0.00,WeatherDisplay:10.37,2013-11-19 11:49:00,
2013-11-19 06:54:00,32.0,23.3,30.13,NNE,22,0.0,0.0,70,0.00,CLR,,0.00,WeatherDisplay:10.37,2013-11-19 11:54:00,
2013-11-19 06:59:00,31.8,23.1,30.13,NNE,22,0.0,0.0,70,0.00,CLR,,0.00,WeatherDisplay:10.37,2013-11-19 11:59:00,
2013-11-19 07:04:00,31.6,23.0,30.14,NNE,22,0.0,0.0,70,0.00,CLR,,0.00,WeatherDisplay:10.37,2013-11-19 12:04:00,
2013-11-19 07:09:00,31.3,22.6,30.14,NNE,22,0.0,0.0,70,0.00,CLR,,0.00,WeatherDisplay:10.37,2013-11-19 12:09:00,
2013-11-19 07:14:00,31.3,23.0,30.14,NNE,22,0.0,0.0,71,0.00,CLR,,0.00,WeatherDisplay:10.37,2013-11-19 12:14:00,
2013-11-19 07:19:00,30.9,22.6,30.14,NNE,22,0.0,0.0,71,0.00,CLR,,0.00,WeatherDisplay:10.37,2013-11-19 12:19:00,
2013-11-19 07:24:00,30.7,22.4,30.14,NNE,22,0.0,0.0,71,0.00,CLR,,0.00,WeatherDisplay:10.37,2013-11-19 12:24:00,
2013-11-19 07:29:00,30.7,22.4,30.14,NNE,22,0.0,0.0,71,0.00,CLR,,0.00,WeatherDisplay:10.37,2013-11-19 12:29:00,
2013-11-19 07:34:00,30.6,22.3,30.15,NNE,22,0.0,0.0,71,0.00,CLR,,0.00,WeatherDisplay:10.37,2013-11-19 12:34:00,
2013-11-19 07:39:00,30.6,22.3,30.15,NNE,22,0.0,0.0,71,0.00,CLR,,0.00,WeatherDisplay:10.37,2013-11-19 12:39:00,
2013-11-19 07:44:00,30.6,22.6,30.15,NNE,22,0.0,0.0,72,0.00,CLR,,0.00,WeatherDisplay:10.37,2013-11-19 12:44:00,
2013-11-19 07:49:00,30.6,22.6,30.15,NNE,22,0.0,0.0,72,0.00,CLR,,0.00,WeatherDisplay:10.37,2013-11-19 12:49:00,
2013-11-19 07:54:00,30.6,22.6,30.15,NNE,22,0.0,0.0,72,0.00,CLR,,0.00,WeatherDisplay:10.37,2013-11-19 12:54:00,
2013-11-19 07:59:00,30.6,22.6,30.16,NNE,22,0.0,0.0,72,0.00,CLR,,0.00,WeatherDisplay:10.37,2013-11-19 12:59:00,
2013-11-19 08:04:00,30.7,22.8,30.16,NNE,22,0.0,0.0,72,0.00,CLR,,0.00,WeatherDisplay:10.37,2013-11-19 13:04:00,
2013-11-19 08:09:00,30.9,23.0,30.16,NNE,22,0.0,0.0,72,0.00,CLR,,0.00,WeatherDisplay:10.37,2013-11-19 13:09:00,
2013-11-19 08:14:00,31.3,23.3,30.16,NNE,22,0.0,0.0,72,0.00,CLR,,0.00,WeatherDisplay:10.37,2013-11-19 13:14:00,
2013-11-19 08:19:00,31.8,23.8,30.16,NNE,22,0.0,0.0,72,0.00,CLR,,0.00,WeatherDisplay:10.37,2013-11-19 13:19:00,
2013-11-19 08:24:00,32.0,24.0,30.16,NNE,22,0.0,0.0,72,0.00,CLR,,0.00,WeatherDisplay:10.37,2013-11-19 13:24:00,
2013-11-19 08:29:00,32.2,24.2,30.17,NNE,22,0.0,0.0,72,0.00,CLR,,0.00,WeatherDisplay:10.37,2013-11-19 13:29:00,
2013-11-19 08:34:00,32.9,24.5,30.17,NNE,22,0.0,0.0,71,0.00,CLR,,0.00,WeatherDisplay:10.37,2013-11-19 13:34:00,
2013-11-19 08:39:00,33.3,24.5,30.17,NNE,22,0.0,0.0,70,0.00,CLR,,0.00,WeatherDisplay:10.37,2013-11-19 13:39:00,
2013-11-19 08:44:00,33.4,24.7,30.17,NNE,22,0.0,0.0,70,0.00,CLR,,0.00,WeatherDisplay:10.37,2013-11-19 13:44:00,
2013-11-19 08:49:00,33.6,24.9,30.17,NNE,22,0.0,0.0,70,0.00,CLR,,0.00,WeatherDisplay:10.37,2013-11-19 13:49:00,
2013-11-19 08:54:00,34.0,25.2,30.17,NNE,22,0.0,0.0,70,0.00,CLR,,0.00,WeatherDisplay:10.37,2013-11-19 13:54:00,
2013-11-19 08:59:00,34.3,25.2,30.18,NNE,22,0.0,0.0,69,0.00,CLR,,0.00,WeatherDisplay:10.37,2013-11-19 13:59:00,
2013-11-19 09:04:00,34.5,25.4,30.18,NNE,22,0.0,0.0,69,0.00,CLR,,0.00,WeatherDisplay:10.37,2013-11-19 14:04:00,
2013-11-19 09:09:00,34.5,25.0,30.19,NNE,22,0.0,0.0,68,0.00,CLR,,0.00,WeatherDisplay:10.37,2013-11-19 14:09:00,
2013-11-19 09:14:00,34.5,25.0,30.19,NNE,22,0.0,0.0,68,0.00,CLR,,0.00,WeatherDisplay:10.37,2013-11-19 14:14:00,
2013-11-19 09:19:00,34.3,24.9,30.19,NNE,22,0.0,0.0,68,0.00,CLR,,0.00,WeatherDisplay:10.37,2013-11-19 14:19:00,
2013-11-19 09:24:00,34.5,25.0,30.19,NNE,22,0.0,0.0,68,0.00,CLR,,0.00,WeatherDisplay:10.37,2013-11-19 14:24:00,
2013-11-19 09:28:00,34.5,25.0,30.19,NNE,22,0.0,0.0,68,0.00,CLR,,0.00,WeatherDisplay:10.37,2013-11-19 14:28:00,
2013-11-19 09:33:00,34.5,25.0,30.19,NNE,22,0.0,0.0,68,0.00,CLR,,0.00,WeatherDisplay:10.37,2013-11-19 14:33:00,
2013-11-19 09:38:00,34.5,25.0,30.19,NNE,22,0.0,0.0,68,0.00,CLR,,0.00,WeatherDisplay:10.37,2013-11-19 14:38:00,
2013-11-19 09:43:00,34.9,25.4,30.19,NNE,22,0.0,0.0,68,0.00,CLR,,0.00,WeatherDisplay:10.37,2013-11-19 14:43:00,
2013-11-19 09:48:00,35.2,25.4,30.19,NNE,22,0.0,0.0,67,0.00,CLR,,0.00,WeatherDisplay:10.37,2013-11-19 14:48:00,
2013-11-19 09:53:00,35.2,25.4,30.19,NNE,22,0.0,0.0,67,0.00,CLR,,0.00,WeatherDisplay:10.37,2013-11-19 14:53:00,
2013-11-19 09:58:00,35.2,25.4,30.19,NNE,22,0.0,0.0,67,0.00,CLR,,0.00,WeatherDisplay:10.37,2013-11-19 14:58:00,
2013-11-19 10:03:00,35.8,25.9,30.19,NNE,22,0.0,0.0,67,0.00,CLR,,0.00,WeatherDisplay:10.37,2013-11-19 15:03:00,
2013-11-19 10:08:00,36.0,26.1,30.19,NNE,22,0.0,0.0,67,0.00,CLR,,0.00,WeatherDisplay:10.37,2013-11-19 15:08:00,
2013-11-19 10:13:00,36.5,26.6,30.19,NNE,22,0.0,0.0,67,0.00,CLR,,0.00,WeatherDisplay:10.37,2013-11-19 15:13:00,
2013-11-19 10:18:00,37.0,26.7,30.20,NNE,22,0.0,0.0,66,0.00,CLR,,0.00,WeatherDisplay:10.37,2013-11-19 15:18:00,
2013-11-19 10:23:00,37.4,26.7,30.20,NNE,22,0.0,0.0,65,0.00,CLR,,0.00,WeatherDisplay:10.37,2013-11-19 15:23:00,
2013-11-19 10:28:00,37.8,27.0,30.20,NNE,22,0.0,0.0,65,0.00,CLR,,0.00,WeatherDisplay:10.37,2013-11-19 15:28:00,
2013-11-19 10:33:00,37.8,27.0,30.20,NNE,22,0.0,0.0,65,0.00,CLR,,0.00,WeatherDisplay:10.37,2013-11-19 15:33:00,
2013-11-19 10:38:00,37.9,26.8,30.20,NNE,22,0.0,0.0,64,0.00,CLR,,0.00,WeatherDisplay:10.37,2013-11-19 15:38:00,
2013-11-19 10:43:00,38.8,28.1,30.20,NNE,22,0.0,0.0,65,0.00,CLR,,0.00,WeatherDisplay:10.37,2013-11-19 15:43:00,
2013-11-19 10:48:00,40.1,28.5,30.20,NNE,22,0.0,0.0,63,0.00,CLR,,0.00,WeatherDisplay:10.37,2013-11-19 15:48:00,
2013-11-19 10:53:00,39.7,27.8,30.20,NNE,22,0.0,0.0,62,0.00,CLR,,0.00,WeatherDisplay:10.37,2013-11-19 15:53:00,
2013-11-19 10:58:00,40.1,28.1,30.20,NNE,22,0.0,0.0,62,0.00,CLR,,0.00,WeatherDisplay:10.37,2013-11-19 15:58:00,
2013-11-19 11:03:00,39.9,27.5,30.20,NNE,22,0.0,0.0,61,0.00,CLR,,0.00,WeatherDisplay:10.37,2013-11-19 16:03:00,
2013-11-19 11:08:00,40.1,27.7,30.20,NNE,22,0.0,0.0,61,0.00,CLR,,0.00,WeatherDisplay:10.37,2013-11-19 16:08:00,
2013-11-19 11:13:00,41.9,29.8,30.20,NNE,22,0.0,0.0,62,0.00,CLR,,0.00,WeatherDisplay:10.37,2013-11-19 16:13:00,
2013-11-19 11:18:00,44.4,31.4,30.20,NNE,22,0.0,0.0,60,0.00,CLR,,0.00,WeatherDisplay:10.37,2013-11-19 16:18:00,
2013-11-19 11:23:00,46.0,32.1,30.19,NNE,22,0.0,0.0,58,0.00,CLR,,0.00,WeatherDisplay:10.37,2013-11-19 16:23:00,
2013-11-19 11:28:00,45.3,30.1,30.19,NNE,22,0.0,0.0,55,0.00,CLR,,0.00,WeatherDisplay:10.37,2013-11-19 16:28:00,
2013-11-19 11:33:00,45.1,30.4,30.19,NNE,22,0.0,0.0,56,0.00,CLR,,0.00,WeatherDisplay:10.37,2013-11-19 16:33:00,
2013-11-19 11:38:00,45.7,30.4,30.19,NNE,22,0.0,0.0,55,0.00,CLR,,0.00,WeatherDisplay:10.37,2013-11-19 16:38:00,
2013-11-19 11:43:00,47.7,31.8,30.19,NNE,22,0.0,0.0,54,0.00,CLR,,0.00,WeatherDisplay:10.37,2013-11-19 16:43:00,
2013-11-19 11:48:00,48.4,31.5,30.19,NNE,22,0.0,0.0,52,0.00,CLR,,0.00,WeatherDisplay:10.37,2013-11-19 16:48:00,
2013-11-19 11:53:00,48.7,31.9,30.19,NNE,22,0.0,0.0,52,0.00,CLR,,0.00,WeatherDisplay:10.37,2013-11-19 16:53:00,
2013-11-19 11:58:00,49.3,32.4,30.19,NNE,22,0.0,0.0,52,0.00,CLR,,0.00,WeatherDisplay:10.37,2013-11-19 16:58:00,
2013-11-19 12:03:00,50.5,33.6,30.19,NNE,22,0.0,0.0,52,0.00,CLR,,0.00,WeatherDisplay:10.37,2013-11-19 17:03:00,
2013-11-19 12:08:00,52.0,33.9,30.19,NNE,22,0.0,0.0,50,0.00,CLR,,0.00,WeatherDisplay:10.37,2013-11-19 17:08:00,
2013-11-19 12:13:00,52.9,34.2,30.19,NNE,22,0.0,0.0,49,0.00,CLR,,0.00,WeatherDisplay:10.37,2013-11-19 17:13:00,
2013-11-19 12:18:00,53.2,34.0,30.19,NNE,22,0.0,0.0,48,0.00,CLR,,0.00,WeatherDisplay:10.37,2013-11-19 17:18:00,
2013-11-19 12:23:00,52.7,33.5,30.19,NNE,22,0.0,0.0,48,0.00,CLR,,0.00,WeatherDisplay:10.37,2013-11-19 17:23:00,
2013-11-19 12:28:00,52.0,32.9,30.19,NNE,22,0.0,0.0,48,0.00,CLR,,0.00,WeatherDisplay:10.37,2013-11-19 17:28:00,
2013-11-19 12:33:00,53.4,34.2,30.19,NNE,22,0.0,0.0,48,0.00,CLR,,0.00,WeatherDisplay:10.37,2013-11-19 17:33:00,
2013-11-19 12:35:00,54.1,34.9,30.19,NNE,22,0.0,0.0,48,0.00,CLR,,0.00,WeatherDisplay:10.37,2013-11-19 17:35:00,
2013-11-19 12:40:00,54.3,34.0,30.19,NNE,22,0.0,0.0,46,0.00,CLR,,0.00,WeatherDisplay:10.37,2013-11-19 17:40:00,
2013-11-19 12:45:00,53.8,33.5,30.19,NNE,22,0.0,0.0,46,0.00,CLR,,0.00,WeatherDisplay:10.37,2013-11-19 17:45:00,
2013-11-19 12:50:00,51.8,31.7,30.19,NNE,22,0.0,0.0,46,0.00,CLR,,0.00,WeatherDisplay:10.37,2013-11-19 17:50:00,
2013-11-19 12:55:00,51.6,32.6,30.19,NNE,22,0.0,0.0,48,0.00,CLR,,0.00,WeatherDisplay:10.37,2013-11-19 17:55:00,
2013-11-19 13:00:00,54.9,35.0,30.18,NNE,22,0.0,0.0,47,0.00,CLR,,0.00,WeatherDisplay:10.37,2013-11-19 18:00:00,
2013-11-19 13:05:00,56.5,35.4,30.18,NNE,22,0.0,0.0,45,0.00,CLR,,0.00,WeatherDisplay:10.37,2013-11-19 18:05:00,
2013-11-19 13:10:00,57.4,35.6,30.18,NNE,22,0.0,0.0,44,0.00,CLR,,0.00,WeatherDisplay:10.37,2013-11-19 18:10:00,
2013-11-19 13:15:00,57.4,35.0,30.18,NNE,22,0.0,0.0,43,0.00,CLR,,0.00,WeatherDisplay:10.37,2013-11-19 18:15:00,
2013-11-19 13:20:00,57.1,34.8,30.18,NNE,22,0.0,0.0,43,0.00,CLR,,0.00,WeatherDisplay:10.37,2013-11-19 18:20:00,
2013-11-19 13:25:00,56.8,34.0,30.18,NNE,22,0.0,0.0,42,0.00,CLR,,0.00,WeatherDisplay:10.37,2013-11-19 18:25:00,
2013-11-19 13:30:00,57.7,35.4,30.18,NNE,22,0.0,0.0,43,0.00,CLR,,0.00,WeatherDisplay:10.37,2013-11-19 18:30:00,
2013-11-19 13:35:00,57.0,33.5,30.18,NNE,22,0.0,0.0,41,0.00,CLR,,0.00,WeatherDisplay:10.37,2013-11-19 18:35:00,
2013-11-19 13:40:00,55.6,32.8,30.18,NNE,22,0.0,0.0,42,0.00,CLR,,0.00,WeatherDisplay:10.37,2013-11-19 18:40:00,
2013-11-19 13:45:00,55.0,32.9,30.18,NNE,22,0.0,0.0,43,0.00,CLR,,0.00,WeatherDisplay:10.37,2013-11-19 18:45:00,
2013-11-19 13:50:00,53.2,31.3,30.18,NNE,22,0.0,0.0,43,0.00,CLR,,0.00,WeatherDisplay:10.37,2013-11-19 18:50:00,
2013-11-19 13:55:00,53.4,32.0,30.18,NNE,22,0.0,0.0,44,0.00,CLR,,0.00,WeatherDisplay:10.37,2013-11-19 18:55:00,
2013-11-19 14:00:00,52.7,31.4,30.18,NNE,22,0.0,0.0,44,0.00,CLR,,0.00,WeatherDisplay:10.37,2013-11-19 19:00:00,
2013-11-19 14:05:00,52.2,31.4,30.18,NNE,22,0.0,0.0,45,0.00,CLR,,0.00,WeatherDisplay:10.37,2013-11-19 19:05:00,
2013-11-19 14:06:00,52.3,31.6,30.18,NNE,22,0.0,0.0,45,0.00,CLR,,0.00,WeatherDisplay:10.37,2013-11-19 19:06:00,
2013-11-19 14:11:00,52.2,31.4,30.18,NNE,22,0.0,0.0,45,0.00,CLR,,0.00,WeatherDisplay:10.37,2013-11-19 19:11:00,
2013-11-19 14:16:00,53.4,33.1,30.18,NNE,22,0.0,0.0,46,0.00,CLR,,0.00,WeatherDisplay:10.37,2013-11-19 19:16:00,
2013-11-19 14:21:00,54.7,33.2,30.17,NNE,22,0.0,0.0,44,0.00,CLR,,0.00,WeatherDisplay:10.37,2013-11-19 19:21:00,
2013-11-19 14:26:00,55.2,33.7,30.17,NNE,22,0.0,0.0,44,0.00,CLR,,0.00,WeatherDisplay:10.37,2013-11-19 19:26:00,
2013-11-19 14:31:00,56.1,34.5,30.17,NNE,22,0.0,0.0,44,0.00,CLR,,0.00,WeatherDisplay:10.37,2013-11-19 19:31:00,
2013-11-19 14:36:00,56.7,33.8,30.17,NNE,22,0.0,0.0,42,0.00,CLR,,0.00,WeatherDisplay:10.37,2013-11-19 19:36:00,
2013-11-19 14:41:00,56.1,33.3,30.17,NNE,22,0.0,0.0,42,0.00,CLR,,0.00,WeatherDisplay:10.37,2013-11-19 19:41:00,
2013-11-19 14:46:00,55.4,32.7,30.17,NNE,22,0.0,0.0,42,0.00,CLR,,0.00,WeatherDisplay:10.37,2013-11-19 19:46:00,
2013-11-19 14:51:00,53.2,30.7,30.17,NNE,22,0.0,0.0,42,0.00,CLR,,0.00,WeatherDisplay:10.37,2013-11-19 19:51:00,
2013-11-19 14:56:00,51.8,30.6,30.18,NNE,22,0.0,0.0,44,0.00,CLR,,0.00,WeatherDisplay:10.37,2013-11-19 19:56:00,
2013-11-19 15:01:00,50.2,29.1,30.17,NNE,22,0.0,0.0,44,0.00,CLR,,0.00,WeatherDisplay:10.37,2013-11-19 20:01:00,
2013-11-19 15:06:00,48.0,27.7,30.17,NNE,22,0.0,0.0,45,0.00,CLR,,0.00,WeatherDisplay:10.37,2013-11-19 20:06:00,
2013-11-19 15:11:00,45.3,26.3,30.18,NNE,22,0.0,0.0,47,0.00,CLR,,0.00,WeatherDisplay:10.37,2013-11-19 20:11:00,
2013-11-19 15:16:00,43.5,25.1,30.18,NNE,22,0.0,0.0,48,0.00,CLR,,0.00,WeatherDisplay:10.37,2013-11-19 20:16:00,
2013-11-19 15:21:00,43.2,25.3,30.18,NNE,22,0.0,0.0,49,0.00,CLR,,0.00,WeatherDisplay:10.37,2013-11-19 20:21:00,
2013-11-19 15:26:00,42.4,25.6,30.17,NNE,22,0.0,0.0,51,0.00,CLR,,0.00,WeatherDisplay:10.37,2013-11-19 20:26:00,
2013-11-19 15:31:00,42.1,25.7,30.17,NNE,22,0.0,0.0,52,0.00,CLR,,0.00,WeatherDisplay:10.37,2013-11-19 20:31:00,
2013-11-19 15:36:00,41.7,25.4,30.17,NNE,22,0.0,0.0,52,0.00,CLR,,0.00,WeatherDisplay:10.37,2013-11-19 20:36:00,
2013-11-19 15:41:00,41.9,26.4,30.18,NNE,22,0.0,0.0,54,0.00,CLR,,0.00,WeatherDisplay:10.37,2013-11-19 20:41:00,
2013-11-19 15:46:00,43.0,27.9,30.18,NNE,22,0.0,0.0,55,0.00,CLR,,0.00,WeatherDisplay:10.37,2013-11-19 20:46:00,
2013-11-19 15:51:00,45.0,29.3,30.18,NNE,22,0.0,0.0,54,0.00,CLR,,0.00,WeatherDisplay:10.37,2013-11-19 20:51:00,
2013-11-19 15:56:00,46.6,30.3,30.18,NNE,22,0.0,0.0,53,0.00,CLR,,0.00,WeatherDisplay:10.37,2013-11-19 20:56:00,
2013-11-19 16:01:00,48.9,31.6,30.19,NNE,22,0.0,0.0,51,0.00,CLR,,0.00,WeatherDisplay:10.37,2013-11-19 21:01:00,
2013-11-19 16:06:00,49.3,30.4,30.19,NNE,22,0.0,0.0,48,0.00,CLR,,0.00,WeatherDisplay:10.37,2013-11-19 21:06:00,
2013-11-19 16:11:00,47.7,28.4,30.19,NNE,22,0.0,0.0,47,0.00,CLR,,0.00,WeatherDisplay:10.37,2013-11-19 21:11:00,
2013-11-19 16:16:00,45.1,26.6,30.19,NNE,22,0.0,0.0,48,0.00,CLR,,0.00,WeatherDisplay:10.37,2013-11-19 21:16:00,
2013-11-19 16:21:00,43.7,26.3,30.18,NNE,22,0.0,0.0,50,0.00,CLR,,0.00,WeatherDisplay:10.37,2013-11-19 21:21:00,
2013-11-19 16:26:00,42.6,25.3,30.19,NNE,22,0.0,0.0,50,0.00,CLR,,0.00,WeatherDisplay:10.37,2013-11-19 21:26:00,
2013-11-19 16:31:00,41.5,25.2,30.19,NNE,22,0.0,0.0,52,0.00,CLR,,0.00,WeatherDisplay:10.37,2013-11-19 21:31:00,
2013-11-19 16:36:00,41.4,25.9,30.19,NNE,22,0.0,0.0,54,0.00,CLR,,0.00,WeatherDisplay:10.37,2013-11-19 21:36:00,
2013-11-19 16:41:00,40.8,25.4,30.19,NNE,22,0.0,0.0,54,0.00,CLR,,0.00,WeatherDisplay:10.37,2013-11-19 21:41:00,
2013-11-19 16:46:00,39.9,24.2,30.19,NNE,22,0.0,0.0,53,0.00,CLR,,0.00,WeatherDisplay:10.37,2013-11-19 21:46:00,
2013-11-19 16:51:00,39.0,23.8,30.20,NNE,22,0.0,0.0,54,0.00,CLR,,0.00,WeatherDisplay:10.37,2013-11-19 21:51:00,
2013-11-19 16:56:00,38.3,23.1,30.20,NNE,22,0.0,0.0,54,0.00,CLR,,0.00,WeatherDisplay:10.37,2013-11-19 21:56:00,
2013-11-19 17:01:00,37.4,23.1,30.21,NNE,22,0.0,0.0,56,0.00,CLR,,0.00,WeatherDisplay:10.37,2013-11-19 22:01:00,
2013-11-19 17:06:00,36.3,22.5,30.21,NNE,22,0.0,0.0,57,0.00,CLR,,0.00,WeatherDisplay:10.37,2013-11-19 22:06:00,
2013-11-19 17:11:00,35.8,22.0,30.21,NNE,22,0.0,0.0,57,0.00,CLR,,0.00,WeatherDisplay:10.37,2013-11-19 22:11:00,
2013-11-19 17:16:00,34.9,22.0,30.21,NNE,22,0.0,0.0,59,0.00,CLR,,0.00,WeatherDisplay:10.37,2013-11-19 22:16:00,
2013-11-19 17:21:00,34.3,21.5,30.21,NNE,22,0.0,0.0,59,0.00,CLR,,0.00,WeatherDisplay:10.37,2013-11-19 22:21:00,
2013-11-19 17:26:00,34.0,21.5,30.21,NNE,22,0.0,0.0,60,0.00,CLR,,0.00,WeatherDisplay:10.37,2013-11-19 22:26:00,
2013-11-19 17:31:00,33.4,21.4,30.21,NNE,22,0.0,0.0,61,0.00,CLR,,0.00,WeatherDisplay:10.37,2013-11-19 22:31:00,
2013-11-19 17:36:00,33.1,21.5,30.21,NNE,22,0.0,0.0,62,0.00,CLR,,0.00,WeatherDisplay:10.37,2013-11-19 22:36:00,
2013-11-19 17:41:00,32.7,21.1,30.21,NNE,22,0.0,0.0,62,0.00,CLR,,0.00,WeatherDisplay:10.37,2013-11-19 22:41:00,
2013-11-19 17:46:00,32.2,21.0,30.22,NNE,22,0.0,0.0,63,0.00,CLR,,0.00,WeatherDisplay:10.37,2013-11-19 22:46:00,
2013-11-19 17:51:00,32.0,20.8,30.22,NNE,22,0.0,0.0,63,0.00,CLR,,0.00,WeatherDisplay:10.37,2013-11-19 22:51:00,
2013-11-19 17:56:00,31.8,20.6,30.22,NNE,22,0.0,0.0,63,0.00,CLR,,0.00,WeatherDisplay:10.37,2013-11-19 22:56:00,
2013-11-19 18:01:00,31.5,20.7,30.22,NNE,22,0.0,0.0,64,0.00,CLR,,0.00,WeatherDisplay:10.37,2013-11-19 23:01:00,
2013-11-19 18:06:00,31.3,20.9,30.22,NNE,22,0.0,0.0,65,0.00,CLR,,0.00,WeatherDisplay:10.37,2013-11-19 23:06:00,
2013-11-19 18:11:00,31.1,21.1,30.22,NNE,22,0.0,0.0,66,0.00,CLR,,0.00,WeatherDisplay:10.37,2013-11-19 23:11:00,
2013-11-19 18:16:00,30.7,21.1,30.22,NNE,22,0.0,0.0,67,0.00,CLR,,0.00,WeatherDisplay:10.37,2013-11-19 23:16:00,
2013-11-19 18:21:00,30.7,21.1,30.22,NNE,22,0.0,0.0,67,0.00,CLR,,0.00,WeatherDisplay:10.37,2013-11-19 23:21:00,
2013-11-19 18:26:00,30.6,20.9,30.23,NNE,22,0.0,0.0,67,0.00,CLR,,0.00,WeatherDisplay:10.37,2013-11-19 23:26:00,
2013-11-19 18:31:00,30.4,20.7,30.23,NNE,22,0.0,0.0,67,0.00,CLR,,0.00,WeatherDisplay:10.37,2013-11-19 23:31:00,
2013-11-19 18:36:00,30.4,21.1,30.23,NNE,22,0.0,0.0,68,0.00,CLR,,0.00,WeatherDisplay:10.37,2013-11-19 23:36:00,
2013-11-19 18:41:00,30.4,21.1,30.24,NNE,22,0.0,0.0,68,0.00,CLR,,0.00,WeatherDisplay:10.37,2013-11-19 23:41:00,
2013-11-19 18:46:00,30.2,21.2,30.23,NNE,22,0.0,0.0,69,0.00,CLR,,0.00,WeatherDisplay:10.37,2013-11-19 23:46:00,
2013-11-19 18:51:00,30.0,21.1,30.23,NNE,22,0.0,0.0,69,0.00,CLR,,0.00,WeatherDisplay:10.37,2013-11-19 23:51:00,
2013-11-19 18:56:00,30.0,21.1,30.23,NNE,22,0.0,0.0,69,0.00,CLR,,0.00,WeatherDisplay:10.37,2013-11-19 23:56:00,
2013-11-19 19:01:00,30.0,21.1,30.23,NNE,22,0.0,0.0,69,0.00,CLR,,0.00,WeatherDisplay:10.37,2013-11-20 00:01:00,
2013-11-19 19:06:00,30.0,21.1,30.23,NNE,22,0.0,0.0,69,0.00,CLR,,0.00,WeatherDisplay:10.37,2013-11-20 00:06:00,
2013-11-19 19:11:00,30.0,21.4,30.23,NNE,22,0.0,0.0,70,0.00,CLR,,0.00,WeatherDisplay:10.37,2013-11-20 00:11:00,
2013-11-19 19:16:00,30.0,21.4,30.23,NNE,22,0.0,0.0,70,0.00,CLR,,0.00,WeatherDisplay:10.37,2013-11-20 00:16:00,
2013-11-19 19:21:00,30.0,21.4,30.23,NNE,22,0.0,0.0,70,0.00,CLR,,0.00,WeatherDisplay:10.37,2013-11-20 00:21:00,
2013-11-19 19:26:00,30.0,21.4,30.23,NNE,22,0.0,0.0,70,0.00,CLR,,0.00,WeatherDisplay:10.37,2013-11-20 00:26:00,
2013-11-19 19:31:00,30.0,21.8,30.23,NNE,22,0.0,0.0,71,0.00,CLR,,0.00,WeatherDisplay:10.37,2013-11-20 00:31:00,
2013-11-19 19:36:00,29.8,21.6,30.23,NNE,22,0.0,0.0,71,0.00,CLR,,0.00,WeatherDisplay:10.37,2013-11-20 00:36:00,
2013-11-19 19:41:00,29.7,21.1,30.24,NNE,22,0.0,0.0,70,0.00,CLR,,0.00,WeatherDisplay:10.37,2013-11-20 00:41:00,
2013-11-19 19:46:00,29.5,20.9,30.23,NNE,22,0.0,0.0,70,0.00,CLR,,0.00,WeatherDisplay:10.37,2013-11-20 00:46:00,
2013-11-19 19:51:00,29.3,21.1,30.23,NNE,22,0.0,0.0,71,0.00,CLR,,0.00,WeatherDisplay:10.37,2013-11-20 00:51:00,
2013-11-19 19:56:00,29.1,20.9,30.22,NNE,22,0.0,0.0,71,0.00,CLR,,0.00,WeatherDisplay:10.37,2013-11-20 00:56:00,
2013-11-19 20:01:00,29.1,20.9,30.23,NNE,22,0.0,0.0,71,0.00,CLR,,0.00,WeatherDisplay:10.37,2013-11-20 01:01:00,
2013-11-19 20:06:00,29.1,21.2,30.23,NNE,22,0.0,0.0,72,0.00,CLR,,0.00,WeatherDisplay:10.37,2013-11-20 01:06:00,
2013-11-19 20:11:00,28.9,21.0,30.23,NNE,22,0.0,0.0,72,0.00,CLR,,0.00,WeatherDisplay:10.37,2013-11-20 01:11:00,
2013-11-19 20:16:00,29.1,21.2,30.23,NNE,22,0.0,0.0,72,0.00,CLR,,0.00,WeatherDisplay:10.37,2013-11-20 01:16:00,
2013-11-19 20:21:00,29.1,21.5,30.23,NNE,22,0.0,0.0,73,0.00,CLR,,0.00,WeatherDisplay:10.37,2013-11-20 01:21:00,
2013-11-19 20:26:00,29.3,21.7,30.22,NNE,22,0.0,0.0,73,0.00,CLR,,0.00,WeatherDisplay:10.37,2013-11-20 01:26:00,
2013-11-19 20:31:00,29.5,21.9,30.24,NNE,22,0.0,0.0,73,0.00,CLR,,0.00,WeatherDisplay:10.37,2013-11-20 01:31:00,
2013-11-19 20:36:00,29.5,21.9,30.24,NNE,22,0.0,0.0,73,0.00,CLR,,0.00,WeatherDisplay:10.37,2013-11-20 01:36:00,
2013-11-19 20:41:00,29.5,21.9,30.24,NNE,22,0.0,0.0,73,0.00,CLR,,0.00,WeatherDisplay:10.37,2013-11-20 01:41:00,
2013-11-19 20:46:00,29.5,21.9,30.24,NNE,22,0.0,0.0,73,0.00,CLR,,0.00,WeatherDisplay:10.37,2013-11-20 01:46:00,
2013-11-19 20:51:00,29.3,21.7,30.24,NNE,22,0.0,0.0,73,0.00,CLR,,0.00,WeatherDisplay:10.37,2013-11-20 01:51:00,
2013-11-19 20:56:00,29.3,21.7,30.24,NNE,22,0.0,0.0,73,0.00,CLR,,0.00,WeatherDisplay:10.37,2013-11-20 01:56:00,
2013-11-19 21:01:00,29.3,21.7,30.24,NNE,22,0.0,0.0,73,0.00,CLR,,0.00,WeatherDisplay:10.37,2013-11-20 02:01:00,
2013-11-19 21:07:00,29.3,21.7,30.24,NNE,22,0.0,0.0,73,0.00,CLR,,0.00,WeatherDisplay:10.37,2013-11-20 02:07:00,
2013-11-19 21:12:00,29.1,21.5,30.24,NNE,22,0.0,0.0,73,0.00,CLR,,0.00,WeatherDisplay:10.37,2013-11-20 02:12:00,
2013-11-19 21:17:00,29.1,21.5,30.24,NNE,22,0.0,0.0,73,0.00,CLR,,0.00,WeatherDisplay:10.37,2013-11-20 02:17:00,
2013-11-19 21:22:00,29.1,21.9,30.24,NNE,22,0.0,0.0,74,0.00,CLR,,0.00,WeatherDisplay:10.37,2013-11-20 02:22:00,
2013-11-19 21:27:00,29.1,21.9,30.24,NNE,22,0.0,0.0,74,0.00,CLR,,0.00,WeatherDisplay:10.37,2013-11-20 02:27:00,
2013-11-19 21:32:00,29.1,21.9,30.24,NNE,22,0.0,0.0,74,0.00,CLR,,0.00,WeatherDisplay:10.37,2013-11-20 02:32:00,
2013-11-19 21:37:00,29.1,21.9,30.24,NNE,22,0.0,0.0,74,0.00,CLR,,0.00,WeatherDisplay:10.37,2013-11-20 02:37:00,
2013-11-19 21:42:00,29.1,21.9,30.24,NNE,22,0.0,0.0,74,0.00,CLR,,0.00,WeatherDisplay:10.37,2013-11-20 02:42:00,
2013-11-19 21:47:00,29.1,21.9,30.24,NNE,22,0.0,0.0,74,0.00,CLR,,0.00,WeatherDisplay:10.37,2013-11-20 02:47:00,
2013-11-19 21:52:00,29.1,21.9,30.24,NNE,22,0.0,0.0,74,0.00,CLR,,0.00,WeatherDisplay:10.37,2013-11-20 02:52:00,
2013-11-19 21:57:00,29.1,21.9,30.24,NNE,22,0.0,0.0,74,0.00,CLR,,0.00,WeatherDisplay:10.37,2013-11-20 02:57:00,
2013-11-19 22:02:00,29.1,22.2,30.24,NNE,22,0.0,0.0,75,0.00,CLR,,0.00,WeatherDisplay:10.37,2013-11-20 03:02:00,
2013-11-19 22:07:00,29.1,22.2,30.24,NNE,22,0.0,0.0,75,0.00,CLR,,0.00,WeatherDisplay:10.37,2013-11-20 03:07:00,
2013-11-19 22:12:00,28.9,22.0,30.25,NNE,22,0.0,0.0,75,0.00,CLR,,0.00,WeatherDisplay:10.37,2013-11-20 03:12:00,
2013-11-19 22:17:00,28.9,22.0,30.25,NNE,22,0.0,0.0,75,0.00,CLR,,0.00,WeatherDisplay:10.37,2013-11-20 03:17:00,
2013-11-19 22:22:00,28.9,22.0,30.25,NNE,22,0.0,0.0,75,0.00,CLR,,0.00,WeatherDisplay:10.37,2013-11-20 03:22:00,
2013-11-19 22:27:00,28.8,21.8,30.25,NNE,22,0.0,0.0,75,0.00,CLR,,0.00,WeatherDisplay:10.37,2013-11-20 03:27:00,
2013-11-19 22:32:00,28.9,22.0,30.25,NNE,22,0.0,0.0,75,0.00,CLR,,0.00,WeatherDisplay:10.37,2013-11-20 03:32:00,
2013-11-19 22:37:00,28.9,22.0,30.25,NNE,22,0.0,0.0,75,0.00,CLR,,0.00,WeatherDisplay:10.37,2013-11-20 03:37:00,
2013-11-19 22:42:00,28.8,21.8,30.25,NNE,22,0.0,0.0,75,0.00,CLR,,0.00,WeatherDisplay:10.37,2013-11-20 03:42:00,
2013-11-19 22:47:00,28.8,21.8,30.25,NNE,22,0.0,0.0,75,0.00,CLR,,0.00,WeatherDisplay:10.37,2013-11-20 03:47:00,
2013-11-19 22:52:00,28.8,21.8,30.25,NNE,22,0.0,0.0,75,0.00,CLR,,0.00,WeatherDisplay:10.37,2013-11-20 03:52:00,
2013-11-19 22:57:00,28.6,21.7,30.25,NNE,22,0.0,0.0,75,0.00,CLR,,0.00,WeatherDisplay:10.37,2013-11-20 03:57:00,
2013-11-19 23:02:00,28.6,22.0,30.24,NNE,22,0.0,0.0,76,0.00,CLR,,0.00,WeatherDisplay:10.37,2013-11-20 04:02:00,
2013-11-19 23:07:00,28.6,22.0,30.25,NNE,22,0.0,0.0,76,0.00,CLR,,0.00,WeatherDisplay:10.37,2013-11-20 04:07:00,
2013-11-19 23:12:00,28.6,22.0,30.25,NNE,22,0.0,0.0,76,0.00,CLR,,0.00,WeatherDisplay:10.37,2013-11-20 04:12:00,
2013-11-19 23:17:00,28.6,22.3,30.24,NNE,22,0.0,0.0,77,0.00,CLR,,0.00,WeatherDisplay:10.37,2013-11-20 04:17:00,
2013-11-19 23:22:00,28.6,22.3,30.24,NNE,22,0.0,0.0,77,0.00,CLR,,0.00,WeatherDisplay:10.37,2013-11-20 04:22:00,
2013-11-19 23:27:00,28.6,22.3,30.24,NNE,22,0.0,0.0,77,0.00,CLR,,0.00,WeatherDisplay:10.37,2013-11-20 04:27:00,
2013-11-19 23:32:00,28.6,22.3,30.25,NNE,22,0.0,0.0,77,0.00,CLR,,0.00,WeatherDisplay:10.37,2013-11-20 04:32:00,
2013-11-19 23:37:00,28.6,22.3,30.25,NNE,22,0.0,0.0,77,0.00,CLR,,0.00,WeatherDisplay:10.37,2013-11-20 04:37:00,
2013-11-19 23:42:00,28.2,22.2,30.25,NNE,22,0.0,0.0,78,0.00,CLR,,0.00,WeatherDisplay:10.37,2013-11-20 04:42:00,
2013-11-19 23:47:00,28.2,22.2,30.25,NNE,22,0.0,0.0,78,0.00,CLR,,0.00,WeatherDisplay:10.37,2013-11-20 04:47:00,
2013-11-19 23:52:00,28.2,22.2,30.25,NNE,22,0.0,0.0,78,0.00,CLR,,0.00,WeatherDisplay:10.37,2013-11-20 04:52:00,
2013-11-19 23:57:00,28.2,22.2,30.25,NNE,22,0.0,0.0,78,0.00,CLR,,0.00,WeatherDisplay:10.37,2013-11-20 04:57:00,